Time;durP1;ratioP1;P1;durP2;ratioP2;P2;SDS_P1;SDS_P2;PMS_P1;PMS_P2;Temp;Humidity;BMP_temperature;BMP_pressure;BME280_temperature;BME280_humidity;BME280_pressure;Samples;Min_cycle;Max_cycle;Signal;HPM_P1;HPM_P2
2022/04/28 00:00:57;;;;;;;0.43;0.43;;;;;;;;;;4944497;28;20559;-87
2022/04/28 00:03:23;;;;;;;0.22;0.17;;;;;;;;;;4941920;29;20077;-88
2022/04/28 00:05:49;;;;;;;0.20;0.20;;;;;;;;;;4940532;28;20034;-88
2022/04/28 00:08:15;;;;;;;0.10;0.10;;;;;;;;;;4943467;29;20038;-87
2022/04/28 00:10:42;;;;;;;0.47;0.22;;;;;;;;;;4942402;28;20081;-88
2022/04/28 00:13:08;;;;;;;0.32;0.22;;;;;;;;;;4942899;28;20039;-87
2022/04/28 00:15:34;;;;;;;;;;;;;;;;;;4940702;29;20101;-87
2022/04/28 00:18:00;;;;;;;0.50;0.50;;;;;;;;;;4955124;28;19918;-87
2022/04/28 00:20:26;;;;;;;0.30;0.30;;;;;;;;;;4940914;28;20112;-88
2022/04/28 00:22:52;;;;;;;0.10;0.10;;;;;;;;;;4940649;28;20512;-88
2022/04/28 00:25:20;;;;;;;0.20;0.20;;;;;;;;;;4947351;28;20299;-87
2022/04/28 00:27:47;;;;;;;0.60;0.60;;;;;;;;;;4944324;28;20121;-88
2022/04/28 00:30:13;;;;;;;0.52;0.52;;;;;;;;;;4940798;29;20031;-87
2022/04/28 00:32:39;;;;;;;0.65;0.38;;;;;;;;;;4944558;28;20489;-87
2022/04/28 00:35:05;;;;;;;0.10;0.10;;;;;;;;;;4957807;28;20054;-88
2022/04/28 00:37:31;;;;;;;0.57;0.57;;;;;;;;;;4943064;28;20023;-88
2022/04/28 00:39:57;;;;;;;0.17;0.17;;;;;;;;;;4943162;28;20046;-88
2022/04/28 00:42:23;;;;;;;1.38;0.70;;;;;;;;;;4946533;28;20023;-87
2022/04/28 00:44:49;;;;;;;0.20;0.20;;;;;;;;;;4943888;28;20051;-88
2022/04/28 00:47:15;;;;;;;0.17;0.17;;;;;;;;;;4944921;28;20404;-87
2022/04/28 00:52:28;;;;;;;0.52;0.52;;;;;;;;;;4940327;28;20046;-87
2022/04/28 00:54:55;;;;;;;0.43;0.43;;;;;;;;;;4945579;28;20090;-87
2022/04/28 00:57:21;;;;;;;0.20;0.20;;;;;;;;;;4941120;28;20039;-87
2022/04/28 00:59:48;;;;;;;0.10;0.10;;;;;;;;;;4941360;28;20031;-87
2022/04/28 01:02:17;;;;;;;0.10;0.10;;;;;;;;;;4943174;28;20023;-88
2022/04/28 01:04:43;;;;;;;15.82;1.00;;;;;;;;;;4945368;29;20134;-88
2022/04/28 01:07:09;;;;;;;0.40;0.40;;;;;;;;;;4938342;28;20079;-88
2022/04/28 01:09:37;;;;;;;1.45;0.88;;;;;;;;;;4952571;28;20437;-87
2022/04/28 01:12:05;;;;;;;0.70;0.70;;;;;;;;;;4949867;28;20039;-87
2022/04/28 01:14:31;;;;;;;0.38;0.17;;;;;;;;;;4945907;28;20046;-87
2022/04/28 01:17:01;;;;;;;0.27;0.27;;;;;;;;;;4943754;28;20240;-89
2022/04/28 01:19:27;;;;;;;0.30;0.30;;;;;;;;;;4946658;29;20043;-87
2022/04/28 01:21:53;;;;;;;3.28;0.65;;;;;;;;;;4944935;28;20027;-88
2022/04/28 01:24:19;;;;;;;0.40;0.40;;;;;;;;;;4949604;28;20058;-88
2022/04/28 01:26:46;;;;;;;0.10;0.10;;;;;;;;;;4946169;28;20035;-89
2022/04/28 01:29:12;;;;;;;0.10;0.10;;;;;;;;;;4939934;28;20509;-88
2022/04/28 01:31:38;;;;;;;0.20;0.20;;;;;;;;;;4946831;28;20031;-88
2022/04/28 01:34:04;;;;;;;0.20;0.20;;;;;;;;;;4948235;28;20027;-87
2022/04/28 01:36:31;;;;;;;0.83;0.83;;;;;;;;;;4949084;28;20094;-87
2022/04/28 01:38:57;;;;;;;;;;;;;;;;;;4948705;28;20157;-87
2022/04/28 01:41:23;;;;;;;0.20;0.20;;;;;;;;;;4941199;29;20400;-88
2022/04/28 01:43:49;;;;;;;0.90;0.55;;;;;;;;;;4943378;28;20043;-87
2022/04/28 01:46:16;;;;;;;3.63;0.57;;;;;;;;;;4946767;28;20130;-88
2022/04/28 01:48:42;;;;;;;0.15;0.15;;;;;;;;;;4948359;28;20043;-87
2022/04/28 01:56:38;;;;;;;0.20;0.20;;;;;;;;;;4944544;28;20114;-88
2022/04/28 01:59:04;;;;;;;0.20;0.20;;;;;;;;;;4944806;28;20031;-87
2022/04/28 02:01:30;;;;;;;0.40;0.30;;;;;;;;;;4941767;29;20035;-88
2022/04/28 02:03:56;;;;;;;0.65;0.43;;;;;;;;;;4946559;28;20038;-87
2022/04/28 02:06:22;;;;;;;0.13;0.13;;;;;;;;;;4948938;28;20118;-87
2022/04/28 02:08:48;;;;;;;0.43;0.40;;;;;;;;;;4943021;29;20295;-86
2022/04/28 02:11:14;;;;;;;0.57;0.40;;;;;;;;;;4940135;28;20054;-87
2022/04/28 02:13:40;;;;;;;0.50;0.50;;;;;;;;;;4944608;28;20035;-87
2022/04/28 02:16:06;;;;;;;0.20;0.20;;;;;;;;;;4948508;28;20322;-86
2022/04/28 02:18:32;;;;;;;0.10;0.10;;;;;;;;;;4945148;28;20027;-87
2022/04/28 02:20:58;;;;;;;0.30;0.30;;;;;;;;;;4942396;28;20027;-87
2022/04/28 02:23:24;;;;;;;0.47;0.33;;;;;;;;;;4941296;28;20301;-87
2022/04/28 02:25:50;;;;;;;0.40;0.40;;;;;;;;;;4942446;28;20527;-88
2022/04/28 02:28:16;;;;;;;0.43;0.30;;;;;;;;;;4941813;28;20038;-87
2022/04/28 02:30:42;;;;;;;0.30;0.30;;;;;;;;;;4951020;28;20043;-87
2022/04/28 02:33:08;;;;;;;0.53;0.53;;;;;;;;;;4943027;28;20031;-87
2022/04/28 02:35:35;;;;;;;0.20;0.20;;;;;;;;;;4941602;29;20425;-86
2022/04/28 02:38:01;;;;;;;0.22;0.22;;;;;;;;;;4941450;28;20666;-87
2022/04/28 02:40:27;;;;;;;0.10;0.10;;;;;;;;;;4943022;29;20119;-87
2022/04/28 02:42:53;;;;;;;0.10;0.10;;;;;;;;;;4941382;28;20273;-88
2022/04/28 02:45:19;;;;;;;0.20;0.20;;;;;;;;;;4941534;29;20485;-87
2022/04/28 02:47:45;;;;;;;0.52;0.52;;;;;;;;;;4943496;28;20339;-87
2022/04/28 02:50:11;;;;;;;0.20;0.20;;;;;;;;;;4956053;28;20078;-88
2022/04/28 02:52:41;;;;;;;0.20;0.20;;;;;;;;;;4945539;28;20123;-87
2022/04/28 02:55:10;;;;;;;0.32;0.32;;;;;;;;;;4943608;29;20509;-87
2022/04/28 02:57:36;;;;;;;0.55;0.55;;;;;;;;;;4940966;28;20115;-88
2022/04/28 03:00:04;;;;;;;0.05;0.05;;;;;;;;;;4946156;28;20715;-87
2022/04/28 03:02:31;;;;;;;0.75;0.73;;;;;;;;;;4937524;28;20081;-87
2022/04/28 03:04:57;;;;;;;0.30;0.30;;;;;;;;;;4940367;29;20090;-87
2022/04/28 03:12:53;;;;;;;0.30;0.30;;;;;;;;;;4945027;28;20658;-87
2022/04/28 03:15:19;;;;;;;0.15;0.15;;;;;;;;;;4944289;28;20039;-87
2022/04/28 03:17:45;;;;;;;1.23;0.83;;;;;;;;;;4944486;28;20114;-85
2022/04/28 03:20:12;;;;;;;0.43;0.43;;;;;;;;;;4942760;28;20509;-86
2022/04/28 03:22:38;;;;;;;2.47;0.57;;;;;;;;;;4945588;28;20850;-86
2022/04/28 03:25:05;;;;;;;0.43;0.43;;;;;;;;;;4935650;29;20291;-87
2022/04/28 03:27:30;;;;;;;;;;;;;;;;;;4940022;28;20035;-87
2022/04/28 03:29:56;;;;;;;0.10;0.10;;;;;;;;;;4937360;28;20280;-86
2022/04/28 03:32:23;;;;;;;1.00;0.50;;;;;;;;;;4940313;28;20620;-86
2022/04/28 03:34:49;;;;;;;1.30;0.83;;;;;;;;;;4933040;29;20027;-87
2022/04/28 03:37:15;;;;;;;0.57;0.57;;;;;;;;;;4942747;28;20051;-87
2022/04/28 03:39:41;;;;;;;0.15;0.15;;;;;;;;;;4942715;28;20031;-87
2022/04/28 03:42:07;;;;;;;0.65;0.65;;;;;;;;;;4940798;29;20675;-87
2022/04/28 03:44:34;;;;;;;0.30;0.30;;;;;;;;;;4940525;28;20039;-87
2022/04/28 03:47:00;;;;;;;0.28;0.28;;;;;;;;;;4941299;28;20031;-87
2022/04/28 03:49:27;;;;;;;0.20;0.20;;;;;;;;;;4944041;28;20038;-87
2022/04/28 03:51:53;;;;;;;0.20;0.20;;;;;;;;;;4946672;28;20028;-87
2022/04/28 03:54:19;;;;;;;5.27;1.77;;;;;;;;;;4945581;28;20128;-86
2022/04/28 03:56:45;;;;;;;0.30;0.30;;;;;;;;;;4941324;28;20539;-88
2022/04/28 03:59:11;;;;;;;0.20;0.20;;;;;;;;;;4942750;28;20632;-87
2022/04/28 04:01:37;;;;;;;0.10;0.10;;;;;;;;;;4945034;28;20039;-88
2022/04/28 04:04:03;;;;;;;0.20;0.20;;;;;;;;;;4942560;28;20310;-87
2022/04/28 04:06:31;;;;;;;0.30;0.30;;;;;;;;;;4942488;28;20024;-87
2022/04/28 04:08:57;;;;;;;0.20;0.20;;;;;;;;;;4938869;29;20430;-87
2022/04/28 04:11:23;;;;;;;0.30;0.30;;;;;;;;;;4939098;28;20035;-87
2022/04/28 04:13:49;;;;;;;0.10;0.10;;;;;;;;;;4939394;29;20697;-87
2022/04/28 04:16:16;;;;;;;1.55;0.30;;;;;;;;;;4946482;28;20134;-87
2022/04/28 04:18:42;;;;;;;0.20;0.20;;;;;;;;;;4944940;28;20047;-88
2022/04/28 04:21:08;;;;;;;0.77;0.50;;;;;;;;;;4940114;29;20303;-87
2022/04/28 04:23:34;;;;;;;0.20;0.20;;;;;;;;;;4942086;28;20027;-87
2022/04/28 04:26:01;;;;;;;0.68;0.63;;;;;;;;;;4943178;28;20032;-88
2022/04/28 04:28:27;;;;;;;0.20;0.20;;;;;;;;;;4945536;28;20051;-87
2022/04/28 04:33:38;;;;;;;0.40;0.40;;;;;;;;;;4941731;28;20567;-87
2022/04/28 04:36:05;;;;;;;0.20;0.20;;;;;;;;;;4941555;29;20035;-88
2022/04/28 04:38:31;;;;;;;0.10;0.10;;;;;;;;;;4947303;29;20066;-87
2022/04/28 04:40:57;;;;;;;1.80;1.03;;;;;;;;;;4944793;29;20036;-90
2022/04/28 04:43:23;;;;;;;0.73;0.53;;;;;;;;;;4942804;28;20318;-90
2022/04/28 04:45:49;;;;;;;0.30;0.30;;;;;;;;;;4943268;28;20051;-90
2022/04/28 04:48:15;;;;;;;0.47;0.47;;;;;;;;;;4972396;28;20058;-88
2022/04/28 04:50:41;;;;;;;1.95;1.17;;;;;;;;;;4953939;28;20556;-91
2022/04/28 04:53:08;;;;;;;0.10;0.10;;;;;;;;;;4949150;29;20690;-91
2022/04/28 04:55:36;;;;;;;0.20;0.20;;;;;;;;;;4948778;28;20024;-91
2022/04/28 04:58:02;;;;;;;1.17;0.50;;;;;;;;;;4956057;28;20043;-88
2022/04/28 05:00:28;;;;;;;0.20;0.20;;;;;;;;;;4950751;28;20055;-89
2022/04/28 05:02:54;;;;;;;0.40;0.40;;;;;;;;;;4949732;28;20030;-89
2022/04/28 05:05:20;;;;;;;0.73;0.52;;;;;;;;;;4946648;29;20285;-89
2022/04/28 05:07:46;;;;;;;0.10;0.10;;;;;;;;;;4941828;28;20115;-89
2022/04/28 05:10:12;;;;;;;0.50;0.37;;;;;;;;;;4946812;29;20374;-89
2022/04/28 05:12:38;;;;;;;0.10;0.10;;;;;;;;;;4943423;29;20027;-90
2022/04/28 05:15:04;;;;;;;2.50;0.63;;;;;;;;;;4945456;28;20023;-90
2022/04/28 05:17:30;;;;;;;0.10;0.10;;;;;;;;;;4935097;29;20049;-88
2022/04/28 05:19:58;;;;;;;0.20;0.20;;;;;;;;;;4944497;28;20044;-89
2022/04/28 05:22:24;;;;;;;0.20;0.20;;;;;;;;;;4948632;28;20050;-87
2022/04/28 05:24:50;;;;;;;0.20;0.20;;;;;;;;;;4939806;28;20892;-88
2022/04/28 05:27:17;;;;;;;0.67;0.37;;;;;;;;;;4939921;28;20035;-86
2022/04/28 05:29:43;;;;;;;0.10;0.10;;;;;;;;;;4936937;29;20019;-88
2022/04/28 05:32:09;;;;;;;1.07;0.73;;;;;;;;;;4939669;28;20095;-87
2022/04/28 05:34:35;;;;;;;1.52;0.38;;;;;;;;;;4944406;28;20085;-88
2022/04/28 05:37:01;;;;;;;0.00;0.00;;;;;;;;;;4948354;28;20035;-87
2022/04/28 05:39:28;;;;;;;0.30;0.30;;;;;;;;;;4946547;28;20043;-88
2022/04/28 05:41:55;;;;;;;0.25;0.25;;;;;;;;;;4943049;28;20142;-90
2022/04/28 05:47:06;;;;;;;1.48;0.95;;;;;;;;;;4942093;28;20042;-87
2022/04/28 05:49:32;;;;;;;0.08;0.08;;;;;;;;;;4944917;28;20109;-88
2022/04/28 05:51:59;;;;;;;0.15;0.15;;;;;;;;;;4940173;29;20573;-85
2022/04/28 05:54:25;;;;;;;0.10;0.10;;;;;;;;;;4947889;28;20098;-85
2022/04/28 05:56:51;;;;;;;1.20;0.85;;;;;;;;;;4947561;28;20060;-86
2022/04/28 05:59:18;;;;;;;1.45;0.80;;;;;;;;;;4946861;28;20041;-85
2022/04/28 06:01:44;;;;;;;0.20;0.20;;;;;;;;;;4945377;28;20035;-85
2022/04/28 06:04:10;;;;;;;0.10;0.10;;;;;;;;;;4964185;28;20045;-89
2022/04/28 06:06:37;;;;;;;1.30;1.20;;;;;;;;;;4949301;28;20830;-88
2022/04/28 06:09:03;;;;;;;1.40;1.30;;;;;;;;;;4947912;28;20675;-86
2022/04/28 06:11:29;;;;;;;0.35;0.35;;;;;;;;;;4948688;28;20027;-86
2022/04/28 06:13:56;;;;;;;0.43;0.43;;;;;;;;;;4943718;28;20031;-86
2022/04/28 06:16:22;;;;;;;0.47;0.30;;;;;;;;;;4950485;28;20027;-86
2022/04/28 06:18:48;;;;;;;0.30;0.30;;;;;;;;;;4949705;28;20820;-86
2022/04/28 06:21:14;;;;;;;0.35;0.35;;;;;;;;;;4947881;28;20130;-86
2022/04/28 06:23:40;;;;;;;0.32;0.32;;;;;;;;;;4947681;28;20042;-87
2022/04/28 06:26:06;;;;;;;0.00;0.00;;;;;;;;;;4945300;28;20046;-86
2022/04/28 06:28:32;;;;;;;0.30;0.30;;;;;;;;;;4960158;28;20027;-87
2022/04/28 06:30:58;;;;;;;0.25;0.25;;;;;;;;;;4965112;28;20039;-86
2022/04/28 06:33:24;;;;;;;0.28;0.28;;;;;;;;;;4945097;28;20061;-87
2022/04/28 06:35:50;;;;;;;0.77;0.45;;;;;;;;;;4947895;28;20031;-87
2022/04/28 06:38:16;;;;;;;1.98;0.63;;;;;;;;;;4959791;28;20086;-87
2022/04/28 06:40:43;;;;;;;2.25;0.88;;;;;;;;;;4945631;28;20031;-87
2022/04/28 06:43:09;;;;;;;0.32;0.32;;;;;;;;;;4949646;28;20043;-86
2022/04/28 06:45:36;;;;;;;2.03;0.43;;;;;;;;;;4947508;28;20085;-86
2022/04/28 06:48:02;;;;;;;0.43;0.43;;;;;;;;;;4947315;28;20569;-86
2022/04/28 06:50:28;;;;;;;1.70;0.65;;;;;;;;;;4938611;28;20125;-86
2022/04/28 06:52:54;;;;;;;0.43;0.43;;;;;;;;;;4940680;28;20067;-86
2022/04/28 06:55:20;;;;;;;1.00;1.00;;;;;;;;;;4928914;28;20115;-87
2022/04/28 06:57:46;;;;;;;0.68;0.68;;;;;;;;;;4928405;28;20061;-86
2022/04/28 07:00:13;;;;;;;7.57;0.85;;;;;;;;;;4930057;28;20489;-86
2022/04/28 07:02:39;;;;;;;0.52;0.50;;;;;;;;;;4928609;28;20040;-86
2022/04/28 07:05:05;;;;;;;0.20;0.17;;;;;;;;;;4926928;28;20048;-86
2022/04/28 07:07:31;;;;;;;1.40;0.50;;;;;;;;;;4945366;28;20110;-86
2022/04/28 07:09:57;;;;;;;0.30;0.30;;;;;;;;;;4939819;28;20090;-87
2022/04/28 07:12:23;;;;;;;0.52;0.20;;;;;;;;;;4941749;28;20465;-87
2022/04/28 07:14:50;;;;;;;0.20;0.20;;;;;;;;;;4941702;28;20114;-86
2022/04/28 07:17:16;;;;;;;0.25;0.25;;;;;;;;;;4942037;28;20035;-87
2022/04/28 07:19:42;;;;;;;0.55;0.52;;;;;;;;;;4943260;28;20147;-86
2022/04/28 07:22:08;;;;;;;0.60;0.60;;;;;;;;;;4943584;28;20116;-86
2022/04/28 07:24:35;;;;;;;0.20;0.20;;;;;;;;;;4942540;28;20047;-87
2022/04/28 07:27:02;;;;;;;0.68;0.30;;;;;;;;;;4939324;28;20039;-86
2022/04/28 07:29:28;;;;;;;0.22;0.22;;;;;;;;;;4945949;28;20023;-85
2022/04/28 07:31:54;;;;;;;0.15;0.15;;;;;;;;;;4941322;28;20027;-87
2022/04/28 07:34:20;;;;;;;0.20;0.20;;;;;;;;;;4944476;29;20576;-86
2022/04/28 07:36:46;;;;;;;1.33;0.55;;;;;;;;;;4946613;28;20085;-86
2022/04/28 07:39:12;;;;;;;0.47;0.45;;;;;;;;;;4946143;28;20027;-85
2022/04/28 07:41:38;;;;;;;0.73;0.73;;;;;;;;;;4946315;28;20034;-86
2022/04/28 07:44:04;;;;;;;0.57;0.40;;;;;;;;;;4943601;28;20039;-86
2022/04/28 07:46:30;;;;;;;1.60;0.80;;;;;;;;;;4947330;28;20031;-87
2022/04/28 07:48:57;;;;;;;0.47;0.47;;;;;;;;;;4947578;28;20042;-86
2022/04/28 07:51:23;;;;;;;0.10;0.10;;;;;;;;;;4947735;28;20031;-85
2022/04/28 07:53:49;;;;;;;0.10;0.10;;;;;;;;;;4943285;28;20035;-85
2022/04/28 07:56:17;;;;;;;0.10;0.10;;;;;;;;;;4942253;28;20122;-87
2022/04/28 07:58:43;;;;;;;0.38;0.38;;;;;;;;;;4938036;28;20039;-86
2022/04/28 08:01:10;;;;;;;0.70;0.47;;;;;;;;;;4947323;28;20031;-85
2022/04/28 08:03:37;;;;;;;0.43;0.43;;;;;;;;;;4943282;28;20050;-86
2022/04/28 08:06:03;;;;;;;0.55;0.30;;;;;;;;;;4947042;28;20635;-85
2022/04/28 08:08:29;;;;;;;0.08;0.08;;;;;;;;;;4944481;28;20122;-86
2022/04/28 08:10:56;;;;;;;;;;;;;;;;;;4948465;28;20039;-86
2022/04/28 08:13:22;;;;;;;0.10;0.10;;;;;;;;;;4936344;28;19914;-86
2022/04/28 08:15:48;;;;;;;0.57;0.35;;;;;;;;;;4951908;28;20716;-86
2022/04/28 08:18:14;;;;;;;0.17;0.10;;;;;;;;;;4936531;28;20028;-85
2022/04/28 08:20:40;;;;;;;0.10;0.10;;;;;;;;;;4935238;28;20150;-86
2022/04/28 08:23:07;;;;;;;0.55;0.38;;;;;;;;;;4933600;28;20493;-86
2022/04/28 08:25:33;;;;;;;;;;;;;;;;;;4933395;28;20027;-86
2022/04/28 08:27:59;;;;;;;0.15;0.15;;;;;;;;;;4939578;28;20380;-86
2022/04/28 08:30:27;;;;;;;0.32;0.32;;;;;;;;;;4936602;28;20052;-85
2022/04/28 08:32:53;;;;;;;0.35;0.35;;;;;;;;;;4940937;28;20038;-86
2022/04/28 08:35:19;;;;;;;0.20;0.20;;;;;;;;;;4950589;28;20042;-86
2022/04/28 08:37:45;;;;;;;0.90;0.40;;;;;;;;;;4949484;28;20092;-86
2022/04/28 08:40:11;;;;;;;0.13;0.10;;;;;;;;;;4946640;28;20074;-86
2022/04/28 08:42:37;;;;;;;0.30;0.25;;;;;;;;;;4935692;28;20078;-86
2022/04/28 08:45:04;;;;;;;1.13;0.77;;;;;;;;;;4933237;28;20490;-85
2022/04/28 08:47:30;;;;;;;0.35;0.35;;;;;;;;;;4936116;28;20027;-86
2022/04/28 08:49:56;;;;;;;0.00;0.00;;;;;;;;;;4950376;28;20046;-86
2022/04/28 08:52:22;;;;;;;0.47;0.47;;;;;;;;;;4952774;28;20025;-86
2022/04/28 08:54:48;;;;;;;0.30;0.30;;;;;;;;;;4951624;28;20456;-86
2022/04/28 08:57:14;;;;;;;0.50;0.50;;;;;;;;;;4952266;28;20031;-86
2022/04/28 08:59:41;;;;;;;0.50;0.50;;;;;;;;;;4951599;28;20043;-85
2022/04/28 09:02:08;;;;;;;0.75;0.43;;;;;;;;;;4950360;28;20119;-86
2022/04/28 09:04:34;;;;;;;0.28;0.28;;;;;;;;;;4951123;28;20039;-86
2022/04/28 09:07:00;;;;;;;0.20;0.10;;;;;;;;;;4952640;28;20086;-87
2022/04/28 09:09:28;;;;;;;1.60;1.00;;;;;;;;;;4951286;28;20034;-86
2022/04/28 09:11:58;;;;;;;0.38;0.38;;;;;;;;;;4945195;28;20030;-86
2022/04/28 09:14:24;;;;;;;1.98;0.30;;;;;;;;;;4935337;28;20122;-85
2022/04/28 09:16:50;;;;;;;0.32;0.05;;;;;;;;;;4932371;28;20031;-86
2022/04/28 09:19:22;;;;;;;11.70;1.17;;;;;;;;;;4935554;28;20054;-85
2022/04/28 09:21:50;;;;;;;0.25;0.25;;;;;;;;;;4933228;28;20063;-86
2022/04/28 09:24:16;;;;;;;0.25;0.25;;;;;;;;;;4932180;28;20040;-86
2022/04/28 09:26:43;;;;;;;0.40;0.40;;;;;;;;;;4936321;28;20027;-86
2022/04/28 09:29:13;;;;;;;0.82;0.28;;;;;;;;;;4943745;28;20046;-86
2022/04/28 09:31:39;;;;;;;4.38;1.33;;;;;;;;;;4947521;28;20533;-86
2022/04/28 09:34:05;;;;;;;;;;;;;;;;;;4946851;28;20034;-85
2022/04/28 09:36:32;;;;;;;0.20;0.20;;;;;;;;;;4946935;28;19914;-86
2022/04/28 09:38:58;;;;;;;0.32;0.32;;;;;;;;;;4947914;28;20039;-85
2022/04/28 09:44:12;;;;;;;0.40;0.30;;;;;;;;;;4943517;28;20183;-86
2022/04/28 09:46:41;;;;;;;0.25;0.22;;;;;;;;;;4947639;28;20027;-86
2022/04/28 09:49:08;;;;;;;0.80;0.63;;;;;;;;;;4949653;28;20027;-86
2022/04/28 09:51:37;;;;;;;0.10;0.10;;;;;;;;;;4948180;28;20047;-86
2022/04/28 09:54:06;;;;;;;1.45;0.52;;;;;;;;;;4947871;28;20026;-87
2022/04/28 09:56:34;;;;;;;0.20;0.20;;;;;;;;;;4946489;28;20073;-85
2022/04/28 09:59:01;;;;;;;0.20;0.20;;;;;;;;;;4946484;28;20131;-86
2022/04/28 10:01:27;;;;;;;;;;;;;;;;;;4949031;28;20109;-86
2022/04/28 10:03:53;;;;;;;0.25;0.25;;;;;;;;;;4948636;28;20264;-86
2022/04/28 10:06:19;;;;;;;0.38;0.38;;;;;;;;;;4944947;28;20047;-86
2022/04/28 10:08:45;;;;;;;0.20;0.20;;;;;;;;;;4946956;28;20559;-87
2022/04/28 10:11:17;;;;;;;0.22;0.22;;;;;;;;;;4943207;28;20036;-86
2022/04/28 10:13:44;;;;;;;0.10;0.10;;;;;;;;;;4927787;28;20050;-87
2022/04/28 10:16:12;;;;;;;0.10;0.10;;;;;;;;;;4935087;28;20066;-87
2022/04/28 10:18:41;;;;;;;0.20;0.20;;;;;;;;;;4934509;28;20032;-87
2022/04/28 10:21:11;;;;;;;0.43;0.43;;;;;;;;;;4936547;28;20042;-87
2022/04/28 10:35:04;;;;;;;0.52;0.45;;;;;;;;;;4937611;29;20055;-87
2022/04/28 10:37:31;;;;;;;0.10;0.10;;;;;;;;;;4950954;28;21047;-86
2022/04/28 10:39:57;;;;;;;0.43;0.30;;;;;;;;;;4961561;28;20035;-88
2022/04/28 10:42:26;;;;;;;0.30;0.30;;;;;;;;;;4948939;28;20043;-86
2022/04/28 10:44:57;;;;;;;0.10;0.10;;;;;;;;;;4943239;28;20877;-86
2022/04/28 10:47:33;;;;;;;0.40;0.40;;;;;;;;;;4954872;28;20035;-87
2022/04/28 10:49:59;;;;;;;0.80;0.30;;;;;;;;;;4938321;28;20036;-87
2022/04/28 10:52:26;;;;;;;0.98;0.30;;;;;;;;;;4946020;28;20484;-87
2022/04/28 10:54:53;;;;;;;0.63;0.57;;;;;;;;;;4945854;28;20036;-87
2022/04/28 10:57:28;;;;;;;0.68;0.40;;;;;;;;;;4949392;28;20040;-87
2022/04/28 10:59:54;;;;;;;0.30;0.30;;;;;;;;;;4944417;28;20407;-87
2022/04/28 11:02:20;;;;;;;0.20;0.20;;;;;;;;;;4948215;28;20451;-87
2022/04/28 11:05:06;;;;;;;0.55;0.35;;;;;;;;;;4944221;28;20800;-87
2022/04/28 11:07:33;;;;;;;0.00;0.00;;;;;;;;;;4937168;28;20043;-87
2022/04/28 11:10:00;;;;;;;0.17;0.17;;;;;;;;;;4944633;28;20409;-88
2022/04/28 11:12:33;;;;;;;0.00;0.00;;;;;;;;;;4948359;28;20082;-88
2022/04/28 11:15:02;;;;;;;0.38;0.38;;;;;;;;;;4944602;28;20126;-88
2022/04/28 11:17:30;;;;;;;0.00;0.00;;;;;;;;;;4944676;28;20039;-86
2022/04/28 11:19:56;;;;;;;1.25;0.47;;;;;;;;;;4943843;28;20058;-88
2022/04/28 11:22:22;;;;;;;0.10;0.10;;;;;;;;;;4949015;28;20067;-86
2022/04/28 11:24:49;;;;;;;0.20;0.20;;;;;;;;;;4939525;28;20067;-85
2022/04/28 11:27:16;;;;;;;0.10;0.10;;;;;;;;;;4944361;28;20031;-87
2022/04/28 11:29:42;;;;;;;0.65;0.65;;;;;;;;;;4946902;28;20031;-86
2022/04/28 11:32:09;;;;;;;0.03;0.03;;;;;;;;;;4956296;28;20038;-86
2022/04/28 11:34:35;;;;;;;0.28;0.28;;;;;;;;;;4942319;29;20038;-87
2022/04/28 11:37:14;;;;;;;1.52;0.55;;;;;;;;;;4941683;28;20118;-87
2022/04/28 11:39:43;;;;;;;0.63;0.63;;;;;;;;;;4941313;29;20054;-85
2022/04/28 11:42:13;;;;;;;0.30;0.30;;;;;;;;;;4945040;28;20035;-86
2022/04/28 11:44:48;;;;;;;0.68;0.40;;;;;;;;;;4944791;28;20130;-85
2022/04/28 11:47:15;;;;;;;0.60;0.40;;;;;;;;;;4940660;28;20539;-85
2022/04/28 11:49:41;;;;;;;0.17;0.17;;;;;;;;;;4941797;28;20499;-85
2022/04/28 11:52:17;;;;;;;0.55;0.55;;;;;;;;;;4935946;28;20105;-86
2022/04/28 11:54:43;;;;;;;0.30;0.30;;;;;;;;;;4944624;28;20031;-86
2022/04/28 11:57:10;;;;;;;0.20;0.20;;;;;;;;;;4944382;28;20078;-88
2022/04/28 11:59:40;;;;;;;0.13;0.13;;;;;;;;;;4947444;28;20039;-90
2022/04/28 12:02:22;;;;;;;0.47;0.38;;;;;;;;;;4949572;28;20170;-91
2022/04/28 12:04:48;;;;;;;0.57;0.57;;;;;;;;;;4946967;28;20049;-92
2022/04/28 12:07:21;;;;;;;0.50;0.50;;;;;;;;;;4949193;28;20034;-91
2022/04/28 12:15:17;;;;;;;0.05;0.05;;;;;;;;;;4948390;28;20531;-90
2022/04/28 12:20:52;;;;;;;0.30;0.20;;;;;;;;;;4947820;28;20711;-89
2022/04/28 12:23:37;;;;;;;0.45;0.45;;;;;;;;;;4940622;28;20035;-90
2022/04/28 12:26:06;;;;;;;0.55;0.55;;;;;;;;;;4942326;28;20051;-92
2022/04/28 12:28:38;;;;;;;0.55;0.30;;;;;;;;;;4944008;28;20693;-88
2022/04/28 12:31:04;;;;;;;0.10;0.10;;;;;;;;;;4934070;28;20619;-89
2022/04/28 12:33:34;;;;;;;0.65;0.55;;;;;;;;;;4947276;28;20039;-91
2022/04/28 12:36:01;;;;;;;0.13;0.10;;;;;;;;;;4940063;28;20042;-90
2022/04/28 12:38:28;;;;;;;0.20;0.05;;;;;;;;;;4947023;29;20027;-91
2022/04/28 12:40:55;;;;;;;0.80;0.60;;;;;;;;;;4946321;29;20024;-90
2022/04/28 12:43:39;;;;;;;0.45;0.45;;;;;;;;;;4944493;29;20547;-91
2022/04/28 12:46:08;;;;;;;0.35;0.30;;;;;;;;;;4945380;29;20039;-92
2022/04/28 12:48:35;;;;;;;0.10;0.10;;;;;;;;;;4945921;29;20058;-91
2022/04/28 12:51:08;;;;;;;0.10;0.10;;;;;;;;;;4947063;28;20035;-93
2022/04/28 12:53:35;;;;;;;1.42;1.17;;;;;;;;;;4937157;29;20645;-92
2022/04/28 12:56:08;;;;;;;0.10;0.10;;;;;;;;;;4949891;29;20031;-91
2022/04/28 12:58:38;;;;;;;0.35;0.35;;;;;;;;;;4948563;29;20106;-90
2022/04/28 13:01:04;;;;;;;0.10;0.10;;;;;;;;;;4950646;29;20114;-91
2022/04/28 13:03:30;;;;;;;0.20;0.08;;;;;;;;;;4948108;29;20042;-90
2022/04/28 13:05:56;;;;;;;0.32;0.32;;;;;;;;;;4953690;28;20046;-91
2022/04/28 13:08:22;;;;;;;0.65;0.38;;;;;;;;;;4949866;28;20581;-90
2022/04/28 13:10:49;;;;;;;0.10;0.10;;;;;;;;;;4950841;28;20036;-91
2022/04/28 13:13:15;;;;;;;1.83;0.50;;;;;;;;;;4950107;28;20035;-90
2022/04/28 13:15:41;;;;;;;0.40;0.17;;;;;;;;;;4947797;28;20034;-90
2022/04/28 13:18:07;;;;;;;0.08;0.08;;;;;;;;;;4954449;28;20039;-90
2022/04/28 13:20:33;;;;;;;0.47;0.30;;;;;;;;;;4950492;28;20051;-89
2022/04/28 13:22:59;;;;;;;0.13;0.13;;;;;;;;;;4943908;28;20057;-88
2022/04/28 13:25:25;;;;;;;0.30;0.30;;;;;;;;;;4947801;28;20043;-87
2022/04/28 13:27:51;;;;;;;0.00;0.00;;;;;;;;;;4940612;28;20094;-88
2022/04/28 13:30:17;;;;;;;0.60;0.55;;;;;;;;;;4938975;28;20043;-90
2022/04/28 13:32:43;;;;;;;0.43;0.38;;;;;;;;;;4937619;28;20068;-86
2022/04/28 13:35:09;;;;;;;0.13;0.13;;;;;;;;;;4945852;28;20444;-88
2022/04/28 13:37:35;;;;;;;0.00;0.00;;;;;;;;;;4945476;28;20077;-88
2022/04/28 13:40:02;;;;;;;0.15;0.15;;;;;;;;;;4946634;28;20027;-86
2022/04/28 13:42:28;;;;;;;0.65;0.57;;;;;;;;;;4941949;28;20050;-87
2022/04/28 13:44:54;;;;;;;0.30;0.30;;;;;;;;;;4943468;28;20035;-88
2022/04/28 13:47:20;;;;;;;0.38;0.38;;;;;;;;;;4941917;28;20040;-88
2022/04/28 13:49:46;;;;;;;0.43;0.20;;;;;;;;;;4954205;23;21040;-82
2022/04/28 13:52:12;;;;;;;17.50;0.75;;;;;;;;;;4945919;28;20031;-82
2022/04/28 13:54:38;;;;;;;0.98;0.45;;;;;;;;;;4947667;28;20031;-82
2022/04/28 13:57:04;;;;;;;0.60;0.60;;;;;;;;;;4946244;28;20612;-82
2022/04/28 13:59:30;;;;;;;0.22;0.22;;;;;;;;;;4945872;28;20042;-81
2022/04/28 14:01:56;;;;;;;0.38;0.38;;;;;;;;;;4946128;28;20598;-82
2022/04/28 14:04:25;;;;;;;0.32;0.32;;;;;;;;;;4946519;28;20110;-82
2022/04/28 14:06:54;;;;;;;0.30;0.30;;;;;;;;;;4946175;28;20071;-81
2022/04/28 14:09:21;;;;;;;1.45;0.75;;;;;;;;;;4948851;28;20521;-81
2022/04/28 14:11:47;;;;;;;0.30;0.30;;;;;;;;;;4942419;28;20034;-81
2022/04/28 14:14:14;;;;;;;0.47;0.47;;;;;;;;;;4944210;28;20039;-80
2022/04/28 14:16:40;;;;;;;0.68;0.50;;;;;;;;;;4946143;28;20495;-81
2022/04/28 14:19:06;;;;;;;0.75;0.45;;;;;;;;;;4946486;28;20848;-80
2022/04/28 14:21:33;;;;;;;1.50;1.17;;;;;;;;;;4947842;28;20050;-79
2022/04/28 14:23:59;;;;;;;0.35;0.32;;;;;;;;;;4964712;28;20043;-80
2022/04/28 14:26:25;;;;;;;0.65;0.32;;;;;;;;;;4948662;28;20472;-81
2022/04/28 14:28:51;;;;;;;0.80;0.60;;;;;;;;;;4945791;28;20550;-79
2022/04/28 14:31:17;;;;;;;1.30;0.52;;;;;;;;;;4954284;28;20110;-79
2022/04/28 14:33:43;;;;;;;0.20;0.20;;;;;;;;;;4944330;28;20478;-80
2022/04/28 14:36:09;;;;;;;1.00;0.70;;;;;;;;;;4949561;28;20066;-80
2022/04/28 14:38:36;;;;;;;0.68;0.68;;;;;;;;;;4945524;28;20143;-80
2022/04/28 14:41:02;;;;;;;0.20;0.20;;;;;;;;;;4946546;28;20031;-80
2022/04/28 14:43:28;;;;;;;0.88;0.60;;;;;;;;;;4946089;28;20094;-80
2022/04/28 14:45:55;;;;;;;2.38;1.13;;;;;;;;;;4945022;28;20035;-79
2022/04/28 14:48:21;;;;;;;;;;;;;;;;;;4946383;28;20561;-79
2022/04/28 14:53:34;;;;;;;0.47;0.40;;;;;;;;;;4945842;28;20455;-79
2022/04/28 14:56:00;;;;;;;0.50;0.50;;;;;;;;;;4944904;28;20035;-80
2022/04/28 14:58:26;;;;;;;0.28;0.17;;;;;;;;;;4944464;28;20570;-79
2022/04/28 15:00:52;;;;;;;0.55;0.40;;;;;;;;;;4941286;28;20033;-79
2022/04/28 15:03:18;;;;;;;0.80;0.80;;;;;;;;;;4943880;28;20039;-79
2022/04/28 15:05:45;;;;;;;0.20;0.20;;;;;;;;;;4944242;28;20046;-78
2022/04/28 15:08:11;;;;;;;0.10;0.10;;;;;;;;;;4944562;28;20038;-79
2022/04/28 15:10:39;;;;;;;0.30;0.30;;;;;;;;;;4945145;28;20035;-79
2022/04/28 15:13:05;;;;;;;0.40;0.40;;;;;;;;;;4946323;28;20039;-80
2022/04/28 15:15:35;;;;;;;0.20;0.20;;;;;;;;;;4945867;28;20035;-80
2022/04/28 15:18:01;;;;;;;0.20;0.20;;;;;;;;;;4945305;28;20118;-80
2022/04/28 15:20:27;;;;;;;0.75;0.75;;;;;;;;;;4943995;28;20039;-79
2022/04/28 15:22:53;;;;;;;0.15;0.15;;;;;;;;;;4943194;28;20035;-80
2022/04/28 15:25:19;;;;;;;2.53;1.05;;;;;;;;;;4945915;28;20514;-80
2022/04/28 15:27:46;;;;;;;0.10;0.10;;;;;;;;;;4945099;28;20037;-79